createdAt,value
2018-03-29T00:01:54.519Z,24.53
2018-03-29T00:04:22.195Z,24.30
2018-03-29T00:06:49.931Z,22.47
2018-03-29T00:09:17.656Z,22.17
2018-03-29T00:11:45.571Z,24.43
2018-03-29T00:14:13.246Z,22.03
2018-03-29T00:16:41.020Z,26.27
2018-03-29T00:19:08.770Z,22.17
2018-03-29T00:21:36.272Z,23.47
2018-03-29T00:24:04.120Z,19.70
2018-03-29T00:26:31.627Z,21.10
2018-03-29T00:28:59.212Z,24.07
2018-03-29T00:31:26.784Z,23.30
2018-03-29T00:33:54.433Z,21.80
2018-03-29T00:36:22.195Z,20.90
2018-03-29T00:38:49.716Z,23.87
2018-03-29T00:41:17.415Z,19.67
2018-03-29T00:43:44.948Z,26.10
2018-03-29T00:46:12.863Z,20.03
2018-03-29T00:48:40.375Z,18.83
2018-03-29T00:51:07.987Z,23.43
2018-03-29T00:53:44.256Z,22.20
2018-03-29T00:56:11.753Z,20.43
2018-03-29T00:58:39.425Z,23.70
2018-03-29T01:01:07.200Z,21.87
2018-03-29T01:03:36.236Z,21.37
2018-03-29T01:06:03.795Z,21.97
2018-03-29T01:08:33.609Z,24.60
2018-03-29T01:11:01.187Z,20.47
2018-03-29T01:13:28.799Z,23.03
2018-03-29T01:15:56.307Z,21.73
2018-03-29T01:18:23.811Z,24.23
2018-03-29T01:20:51.715Z,23.97
2018-03-29T01:23:19.229Z,23.33
2018-03-29T01:25:47.370Z,21.57
2018-03-29T01:28:14.987Z,23.43
2018-03-29T01:30:43.413Z,25.30
2018-03-29T01:33:10.927Z,26.70
2018-03-29T01:35:38.439Z,26.57
2018-03-29T01:38:06.116Z,25.17
2018-03-29T01:40:33.636Z,23.30
2018-03-29T01:43:01.317Z,26.10
2018-03-29T01:45:28.820Z,24.10
2018-03-29T01:47:56.319Z,21.50
2018-03-29T01:50:23.824Z,25.80
2018-03-29T01:52:51.325Z,25.13
2018-03-29T01:55:18.912Z,22.33
2018-03-29T01:57:46.576Z,24.53
2018-03-29T02:00:14.084Z,27.40
2018-03-29T02:02:41.579Z,24.13
2018-03-29T02:05:09.671Z,24.53
2018-03-29T02:07:37.430Z,22.17
2018-03-29T02:10:04.940Z,26.07
2018-03-29T02:12:32.447Z,23.53
2018-03-29T02:15:00.107Z,24.30
2018-03-29T02:17:27.855Z,23.90
2018-03-29T02:19:56.280Z,23.73
2018-03-29T02:22:23.808Z,23.30
2018-03-29T02:24:51.450Z,21.27
2018-03-29T02:27:19.239Z,23.80
2018-03-29T02:29:46.803Z,25.07
2018-03-29T02:32:14.707Z,22.10
2018-03-29T02:34:42.221Z,20.60
2018-03-29T02:37:10.125Z,23.53
2018-03-29T02:39:38.409Z,23.77
2018-03-29T02:42:06.191Z,20.10
2018-03-29T02:44:33.676Z,20.93
2018-03-29T02:47:01.192Z,20.23
2018-03-29T02:49:29.659Z,22.37
2018-03-29T02:51:57.192Z,21.17
2018-03-29T02:54:24.692Z,19.20
2018-03-29T02:56:52.200Z,20.70
2018-03-29T02:59:19.724Z,21.97
2018-03-29T03:01:47.224Z,22.23
2018-03-29T03:04:14.744Z,23.37
2018-03-29T03:06:42.534Z,18.10
2018-03-29T03:09:10.054Z,24.30
2018-03-29T03:11:37.564Z,23.17
2018-03-29T03:14:05.059Z,26.60
2018-03-29T03:16:32.587Z,21.83
2018-03-29T03:19:00.852Z,24.80
2018-03-29T03:21:29.487Z,22.77
2018-03-29T03:23:56.989Z,21.60
2018-03-29T03:26:24.639Z,22.93
2018-03-29T03:28:52.548Z,24.27
2018-03-29T03:31:20.844Z,23.60
2018-03-29T03:33:48.763Z,21.60
2018-03-29T03:36:16.293Z,24.37
2018-03-29T03:38:44.356Z,21.20
2018-03-29T03:41:11.865Z,20.60
2018-03-29T03:43:39.755Z,22.20
2018-03-29T03:46:07.652Z,24.57
2018-03-29T03:48:35.651Z,21.43
2018-03-29T03:51:03.211Z,25.10
2018-03-29T03:53:30.719Z,24.70
2018-03-29T03:55:58.228Z,23.37
2018-03-29T03:58:26.803Z,23.03
2018-03-29T04:00:55.260Z,24.87
2018-03-29T04:03:22.940Z,24.80
2018-03-29T04:05:50.708Z,22.20
2018-03-29T04:08:18.791Z,22.80
2018-03-29T04:10:46.863Z,25.47
2018-03-29T04:13:14.623Z,21.50
2018-03-29T04:15:43.908Z,21.83
2018-03-29T04:18:11.427Z,25.17
2018-03-29T04:20:38.930Z,23.43
2018-03-29T04:23:06.444Z,25.63
2018-03-29T04:25:34.221Z,24.47
2018-03-29T04:28:02.647Z,24.50
2018-03-29T04:30:30.212Z,25.33
2018-03-29T04:32:57.710Z,22.63
2018-03-29T04:35:25.403Z,22.37
2018-03-29T04:37:53.159Z,24.10
2018-03-29T04:40:21.211Z,26.67
2018-03-29T04:42:49.615Z,22.10
2018-03-29T04:45:17.168Z,21.50
2018-03-29T04:47:44.846Z,23.60
2018-03-29T04:50:12.355Z,20.30
2018-03-29T04:52:40.697Z,21.30
2018-03-29T04:55:08.415Z,25.17
2018-03-29T04:57:35.915Z,17.43
2018-03-29T05:00:04.244Z,21.43
2018-03-29T05:02:31.752Z,24.13
2018-03-29T05:04:59.264Z,22.40
2018-03-29T05:07:27.920Z,22.30
2018-03-29T05:09:55.420Z,29.83
2018-03-29T05:12:23.038Z,25.97
2018-03-29T05:14:50.535Z,23.40
2018-03-29T05:17:18.807Z,28.93
2018-03-29T05:19:46.352Z,25.00
2018-03-29T05:22:14.459Z,26.20
2018-03-29T05:24:42.456Z,21.70
2018-03-29T05:27:15.581Z,53.00
2018-03-29T05:29:43.496Z,51.43
2018-03-29T05:32:11.018Z,46.63
2018-03-29T05:34:38.534Z,32.03
2018-03-29T05:37:06.248Z,32.40
2018-03-29T05:39:34.178Z,28.03
2018-03-29T05:42:01.699Z,25.77
2018-03-29T05:44:29.196Z,25.33
2018-03-29T05:46:56.797Z,24.53
2018-03-29T05:49:24.291Z,24.20
2018-03-29T05:51:51.888Z,25.90
2018-03-29T05:54:19.392Z,25.93
2018-03-29T05:56:46.943Z,24.70
2018-03-29T05:59:14.894Z,24.43
2018-03-29T06:01:42.552Z,27.73
2018-03-29T06:04:10.052Z,31.73
2018-03-29T06:06:37.953Z,30.07
2018-03-29T06:09:06.172Z,38.40
2018-03-29T06:11:34.067Z,38.03
2018-03-29T06:14:07.023Z,34.20
2018-03-29T06:16:40.140Z,42.17
2018-03-29T06:19:08.676Z,35.10
2018-03-29T06:21:36.209Z,40.77
2018-03-29T06:24:04.514Z,45.67
2018-03-29T06:26:32.131Z,44.17
2018-03-29T06:28:59.643Z,47.20
2018-03-29T06:31:27.147Z,42.60
2018-03-29T06:33:55.030Z,49.70
2018-03-29T06:36:23.680Z,47.60
2018-03-29T06:38:52.011Z,41.00
2018-03-29T06:41:19.709Z,38.93
2018-03-29T06:43:47.267Z,40.67
2018-03-29T06:46:16.384Z,42.33
2018-03-29T06:48:44.664Z,40.20
2018-03-29T06:51:12.175Z,39.37
2018-03-29T06:53:39.740Z,38.23
2018-03-29T06:56:07.422Z,38.17
2018-03-29T06:58:35.691Z,41.10
2018-03-29T07:01:03.462Z,32.20
2018-03-29T07:03:31.188Z,32.43
2018-03-29T07:05:58.958Z,28.70
2018-03-29T07:08:26.502Z,44.53
2018-03-29T07:10:54.024Z,37.93
2018-03-29T07:13:21.552Z,31.77
2018-03-29T07:15:49.823Z,35.50
2018-03-29T07:18:17.336Z,35.50
2018-03-29T07:20:44.850Z,37.53
2018-03-29T07:23:13.316Z,34.03
2018-03-29T07:25:40.814Z,30.80
2018-03-29T07:28:08.533Z,32.93
2018-03-29T07:30:36.082Z,30.73
2018-03-29T07:33:03.739Z,32.50
2018-03-29T07:35:31.251Z,35.47
2018-03-29T07:37:59.907Z,34.37
2018-03-29T07:40:27.612Z,31.73
2018-03-29T07:42:55.683Z,36.80
2018-03-29T07:45:23.473Z,24.60
2018-03-29T07:47:51.041Z,38.53
2018-03-29T07:50:18.707Z,35.33
2018-03-29T07:52:47.199Z,35.03
2018-03-29T07:55:14.844Z,33.13
2018-03-29T07:57:42.563Z,24.33
2018-03-29T08:00:10.585Z,34.30
2018-03-29T08:02:38.094Z,32.50
2018-03-29T08:05:05.715Z,32.87
2018-03-29T08:07:33.467Z,36.00
2018-03-29T08:10:01.127Z,36.03
2018-03-29T08:12:28.628Z,34.87
2018-03-29T08:14:56.143Z,36.53
2018-03-29T08:17:23.789Z,34.77
2018-03-29T08:19:51.568Z,33.30
2018-03-29T08:22:19.348Z,36.47
2018-03-29T08:24:46.860Z,29.27
2018-03-29T08:27:14.359Z,34.53
2018-03-29T08:29:42.007Z,39.20
2018-03-29T08:32:09.751Z,32.93
2018-03-29T08:34:37.680Z,38.10
2018-03-29T08:37:05.930Z,33.47
2018-03-29T08:39:33.664Z,35.73
2018-03-29T08:42:01.178Z,34.27
2018-03-29T08:44:28.873Z,34.37
2018-03-29T08:46:56.371Z,31.00
2018-03-29T08:49:23.879Z,35.60
2018-03-29T08:51:51.379Z,32.33
2018-03-29T08:54:24.775Z,33.73
2018-03-29T08:56:52.303Z,33.13
2018-03-29T08:59:19.822Z,31.90
2018-03-29T09:01:47.319Z,34.30
2018-03-29T09:04:14.983Z,33.03
2018-03-29T09:06:42.490Z,34.70
2018-03-29T09:09:10.781Z,35.67
2018-03-29T09:11:38.286Z,25.73
2018-03-29T09:14:06.058Z,34.87
2018-03-29T09:16:34.427Z,39.83
2018-03-29T09:19:01.938Z,32.23
2018-03-29T09:21:29.593Z,32.53
2018-03-29T09:23:57.907Z,31.73
2018-03-29T09:26:25.494Z,30.50
2018-03-29T09:28:53.243Z,33.37
2018-03-29T09:31:20.765Z,34.30
2018-03-29T09:33:49.058Z,29.07
2018-03-29T09:36:16.639Z,34.57
2018-03-29T09:38:44.531Z,34.43
2018-03-29T09:41:12.060Z,30.47
2018-03-29T09:43:39.799Z,32.60
2018-03-29T09:46:07.429Z,29.93
2018-03-29T09:51:08.956Z,28.00
2018-03-29T09:53:36.491Z,33.17
2018-03-29T09:56:04.115Z,31.07
2018-03-29T09:58:31.641Z,33.97
2018-03-29T10:01:04.928Z,32.73
2018-03-29T10:03:32.430Z,34.97
2018-03-29T10:06:03.963Z,34.80
2018-03-29T10:08:32.264Z,33.87
2018-03-29T10:10:59.766Z,24.10
2018-03-29T10:13:27.290Z,30.27
2018-03-29T10:15:54.883Z,34.17
2018-03-29T10:18:22.419Z,34.90
2018-03-29T10:20:49.916Z,35.80
2018-03-29T10:23:17.528Z,29.70
2018-03-29T10:25:45.039Z,31.40
2018-03-29T10:28:12.549Z,32.10
2018-03-29T10:30:40.216Z,31.43
2018-03-29T10:33:07.788Z,32.13
2018-03-29T10:35:35.413Z,32.97
2018-03-29T10:38:03.213Z,29.90
2018-03-29T10:40:31.019Z,28.37
2018-03-29T10:42:58.523Z,33.37
2018-03-29T10:45:26.197Z,27.17
2018-03-29T10:47:53.726Z,26.20
2018-03-29T10:50:21.623Z,26.73
2018-03-29T10:52:49.134Z,30.57
2018-03-29T10:55:16.952Z,30.80
2018-03-29T10:57:44.477Z,29.43
2018-03-29T11:00:11.967Z,26.87
2018-03-29T11:02:39.592Z,23.57
2018-03-29T11:05:07.487Z,31.67
2018-03-29T11:07:35.156Z,28.03
2018-03-29T11:10:02.908Z,26.40
2018-03-29T11:12:30.410Z,30.20
2018-03-29T11:14:58.052Z,28.40
2018-03-29T11:17:25.580Z,24.80
2018-03-29T11:19:53.357Z,29.60
2018-03-29T11:22:21.267Z,26.47
2018-03-29T11:24:48.780Z,26.60
2018-03-29T11:27:16.298Z,27.10
2018-03-29T11:29:43.795Z,26.80
2018-03-29T11:32:11.460Z,29.80
2018-03-29T11:34:38.964Z,27.97
2018-03-29T11:37:06.551Z,25.47
2018-03-29T11:39:34.405Z,28.10
2018-03-29T11:42:02.477Z,28.23
2018-03-29T11:44:30.037Z,34.10
2018-03-29T11:46:57.855Z,31.60
2018-03-29T11:49:25.426Z,28.00
2018-03-29T11:51:53.984Z,25.90
2018-03-29T11:54:21.501Z,34.17
2018-03-29T11:56:48.998Z,23.10
2018-03-29T11:59:16.519Z,31.77
2018-03-29T12:01:44.119Z,28.33
2018-03-29T12:04:13.134Z,27.83
2018-03-29T12:06:40.647Z,24.90
2018-03-29T12:09:08.150Z,26.93
2018-03-29T12:11:36.449Z,30.17
2018-03-29T12:14:03.940Z,24.87
2018-03-29T12:16:31.447Z,27.60
2018-03-29T12:18:59.715Z,27.47
2018-03-29T12:21:27.435Z,27.83
2018-03-29T12:23:55.204Z,26.63
2018-03-29T12:26:22.699Z,28.63
2018-03-29T12:28:50.420Z,28.37
2018-03-29T12:31:17.979Z,29.87
2018-03-29T12:33:45.551Z,28.20
2018-03-29T12:36:13.081Z,29.23
2018-03-29T12:38:40.589Z,24.70
2018-03-29T12:41:08.104Z,32.10
2018-03-29T12:43:36.027Z,24.43
2018-03-29T12:46:04.432Z,22.83
2018-03-29T12:48:31.929Z,27.50
2018-03-29T12:51:00.950Z,27.20
2018-03-29T12:53:28.709Z,22.37
2018-03-29T12:55:56.206Z,24.70
2018-03-29T12:58:24.607Z,36.63
2018-03-29T13:00:52.148Z,23.03
2018-03-29T13:03:19.647Z,23.77
2018-03-29T13:05:47.168Z,25.27
2018-03-29T13:08:14.763Z,19.73
2018-03-29T13:10:42.383Z,26.20
2018-03-29T13:13:10.177Z,24.07
2018-03-29T13:15:37.700Z,27.37
2018-03-29T13:18:05.412Z,23.67
2018-03-29T13:20:33.148Z,23.73
2018-03-29T13:23:00.907Z,24.83
2018-03-29T13:25:28.623Z,23.43
2018-03-29T13:27:56.526Z,25.03
2018-03-29T13:30:24.430Z,22.43
2018-03-29T13:32:52.543Z,22.37
2018-03-29T13:35:20.548Z,27.80
2018-03-29T13:37:48.114Z,27.17
2018-03-29T13:40:15.611Z,26.57
2018-03-29T13:42:43.304Z,30.03
2018-03-29T13:45:10.814Z,26.50
2018-03-29T13:47:38.324Z,21.70
2018-03-29T13:50:05.855Z,25.17
2018-03-29T13:52:33.464Z,24.60
2018-03-29T13:55:01.015Z,29.30
2018-03-29T13:57:29.295Z,24.77
2018-03-29T13:59:56.795Z,25.30
2018-03-29T14:02:24.492Z,25.40
2018-03-29T14:04:52.001Z,20.50
2018-03-29T14:07:19.755Z,28.70
2018-03-29T14:09:47.290Z,25.37
2018-03-29T14:12:14.831Z,28.23
2018-03-29T14:14:42.368Z,23.20
2018-03-29T14:17:10.051Z,22.50
2018-03-29T14:19:37.611Z,22.33
2018-03-29T14:22:05.221Z,21.97
2018-03-29T14:24:33.513Z,21.80
2018-03-29T14:27:01.227Z,31.80
2018-03-29T14:29:28.996Z,23.20
2018-03-29T14:31:56.511Z,24.70
2018-03-29T14:34:24.020Z,31.33
2018-03-29T14:36:51.684Z,23.97
2018-03-29T14:39:19.262Z,21.97
2018-03-29T14:41:46.762Z,24.17
2018-03-29T14:44:14.473Z,25.17
2018-03-29T14:46:42.452Z,24.90
2018-03-29T14:49:10.799Z,25.70
2018-03-29T14:51:38.310Z,22.47
2018-03-29T14:54:06.012Z,27.83
2018-03-29T14:56:33.811Z,24.60
2018-03-29T14:59:01.324Z,23.47
2018-03-29T15:01:28.827Z,27.63
2018-03-29T15:03:57.093Z,28.03
2018-03-29T15:06:24.626Z,33.60
2018-03-29T15:08:52.284Z,27.63
2018-03-29T15:11:19.804Z,29.40
2018-03-29T15:13:47.375Z,25.70
2018-03-29T15:16:14.833Z,27.90
2018-03-29T15:18:42.327Z,25.63
2018-03-29T15:21:09.826Z,30.70
2018-03-29T15:23:37.333Z,26.83
2018-03-29T15:26:04.847Z,39.03
2018-03-29T15:28:32.350Z,23.47
2018-03-29T15:31:00.013Z,23.63
2018-03-29T15:33:27.766Z,24.30
2018-03-29T15:35:55.282Z,25.77
2018-03-29T15:38:22.995Z,19.03
2018-03-29T15:40:50.511Z,22.77
2018-03-29T15:43:18.036Z,23.30
2018-03-29T15:45:45.671Z,23.03
2018-03-29T15:48:13.187Z,25.47
2018-03-29T15:50:40.916Z,25.27
2018-03-29T15:53:09.630Z,23.10
2018-03-29T15:55:37.328Z,26.03
2018-03-29T15:58:04.941Z,24.80
2018-03-29T16:00:32.718Z,27.30
2018-03-29T16:03:00.920Z,25.53
2018-03-29T16:05:28.746Z,28.30
2018-03-29T16:07:56.223Z,30.33
2018-03-29T16:10:23.738Z,32.30
2018-03-29T16:12:51.339Z,32.17
2018-03-29T16:15:19.411Z,27.10
2018-03-29T16:17:46.928Z,29.73
2018-03-29T16:20:14.426Z,26.47
2018-03-29T16:22:42.145Z,30.13
2018-03-29T16:25:10.333Z,33.40
2018-03-29T16:27:38.239Z,30.00
2018-03-29T16:30:06.052Z,30.07
2018-03-29T16:32:33.567Z,33.03
2018-03-29T16:35:01.070Z,31.47
2018-03-29T16:37:28.803Z,44.13
2018-03-29T16:39:56.469Z,34.83
2018-03-29T16:42:24.016Z,26.43
2018-03-29T16:44:51.529Z,27.23
2018-03-29T16:47:20.131Z,31.23
2018-03-29T16:49:47.846Z,27.63
2018-03-29T16:52:16.859Z,34.17
2018-03-29T16:54:44.365Z,30.60
2018-03-29T16:57:11.862Z,29.10
2018-03-29T16:59:39.511Z,26.90
2018-03-29T17:02:07.033Z,29.57
2018-03-29T17:04:34.540Z,29.87
2018-03-29T17:07:02.164Z,22.87
2018-03-29T17:09:29.936Z,31.43
2018-03-29T17:11:57.544Z,27.40
2018-03-29T17:14:26.079Z,29.07
2018-03-29T17:16:53.616Z,26.67
2018-03-29T17:19:21.322Z,26.83
2018-03-29T17:21:48.808Z,28.83
2018-03-29T17:24:16.959Z,26.40
2018-03-29T17:26:44.611Z,28.13
2018-03-29T17:29:12.142Z,26.93
2018-03-29T17:31:39.809Z,25.07
2018-03-29T17:34:07.587Z,25.63
2018-03-29T17:36:35.747Z,29.30
2018-03-29T17:39:03.280Z,25.33
2018-03-29T17:41:30.789Z,27.70
2018-03-29T17:43:58.292Z,27.30
2018-03-29T17:46:26.104Z,24.50
2018-03-29T17:48:53.920Z,24.80
2018-03-29T17:51:21.622Z,26.27
2018-03-29T17:53:49.115Z,28.47
2018-03-29T17:56:16.640Z,28.07
2018-03-29T17:58:44.135Z,21.43
2018-03-29T18:01:12.407Z,20.60
2018-03-29T18:03:40.079Z,21.00
2018-03-29T18:06:07.847Z,24.80
2018-03-29T18:08:35.355Z,17.30
2018-03-29T18:11:03.128Z,19.10
2018-03-29T18:13:30.872Z,23.83
2018-03-29T18:15:58.383Z,22.47
2018-03-29T18:18:25.952Z,24.73
2018-03-29T18:20:53.528Z,23.80
2018-03-29T18:23:21.009Z,17.40
2018-03-29T18:25:48.593Z,19.40
2018-03-29T18:28:16.079Z,22.23
2018-03-29T18:30:43.592Z,16.30
2018-03-29T18:33:11.092Z,18.80
2018-03-29T18:35:39.007Z,18.47
2018-03-29T18:38:06.768Z,17.70
2018-03-29T18:40:34.423Z,18.33
2018-03-29T18:43:01.925Z,17.80
2018-03-29T18:45:29.659Z,18.40
2018-03-29T18:47:57.152Z,19.77
2018-03-29T18:50:25.704Z,16.70
2018-03-29T18:52:53.260Z,17.80
2018-03-29T18:55:21.004Z,14.13
2018-03-29T18:57:48.774Z,36.37
2018-03-29T19:00:16.265Z,24.10
2018-03-29T19:02:44.600Z,38.73
2018-03-29T19:05:12.113Z,27.13
2018-03-29T19:07:39.636Z,17.00
2018-03-29T19:10:07.142Z,16.00
2018-03-29T19:12:34.735Z,18.20
2018-03-29T19:15:02.240Z,11.37
2018-03-29T19:17:29.745Z,12.80
2018-03-29T19:19:57.428Z,14.47
2018-03-29T19:22:24.981Z,11.10
2018-03-29T19:24:52.599Z,14.50
2018-03-29T19:27:20.119Z,16.87
2018-03-29T19:29:47.867Z,15.90
2018-03-29T19:32:15.383Z,26.00
2018-03-29T19:34:43.047Z,19.93
2018-03-29T19:37:10.852Z,16.70
2018-03-29T19:39:38.369Z,19.73
2018-03-29T19:42:05.887Z,18.33
2018-03-29T19:44:33.503Z,17.80
2018-03-29T19:47:00.996Z,15.10
2018-03-29T19:49:28.500Z,14.30
2018-03-29T19:51:56.175Z,30.63
2018-03-29T19:54:23.678Z,16.60
2018-03-29T19:56:51.200Z,52.20
2018-03-29T19:59:18.710Z,16.23
2018-03-29T20:01:46.983Z,13.43
2018-03-29T20:04:14.531Z,12.27
2018-03-29T20:06:43.487Z,14.70
2018-03-29T20:09:11.167Z,12.87
2018-03-29T20:11:38.667Z,13.00
2018-03-29T20:14:06.187Z,13.50
2018-03-29T20:16:33.827Z,12.40
2018-03-29T20:19:01.332Z,10.83
2018-03-29T20:21:29.051Z,12.23
2018-03-29T20:23:56.811Z,12.17
2018-03-29T20:26:24.317Z,11.60
2018-03-29T20:28:52.405Z,12.63
2018-03-29T20:31:19.868Z,11.77
2018-03-29T20:33:47.376Z,14.17
2018-03-29T20:36:15.022Z,15.90
2018-03-29T20:38:43.314Z,11.40
2018-03-29T20:41:10.867Z,11.60
2018-03-29T20:43:38.384Z,12.47
2018-03-29T20:46:05.884Z,13.00
2018-03-29T20:48:33.383Z,13.87
2018-03-29T20:51:00.985Z,36.43
2018-03-29T20:53:28.777Z,12.60
2018-03-29T20:55:56.306Z,18.53
2018-03-29T20:58:23.772Z,13.90
2018-03-29T21:00:51.266Z,11.80
2018-03-29T21:03:19.551Z,14.57
2018-03-29T21:05:47.056Z,10.97
2018-03-29T21:08:14.687Z,14.80
2018-03-29T21:10:42.191Z,11.57
2018-03-29T21:13:09.716Z,12.23
2018-03-29T21:15:37.219Z,11.93
2018-03-29T21:18:05.511Z,11.33
2018-03-29T21:20:33.225Z,9.70
2018-03-29T21:23:01.133Z,9.53
2018-03-29T21:25:28.767Z,14.20
2018-03-29T21:27:56.515Z,10.40
2018-03-29T21:30:24.231Z,14.77
2018-03-29T21:32:52.588Z,12.80
2018-03-29T21:35:20.195Z,13.23
2018-03-29T21:37:47.839Z,11.20
2018-03-29T21:40:21.491Z,14.03
2018-03-29T21:42:49.255Z,14.23
2018-03-29T21:45:16.763Z,15.30
2018-03-29T21:47:44.424Z,15.17
2018-03-29T21:50:11.955Z,15.50
2018-03-29T21:52:39.644Z,19.33
2018-03-29T21:55:07.183Z,13.90
2018-03-29T21:57:34.678Z,12.93
2018-03-29T22:00:02.190Z,15.20
2018-03-29T22:02:30.524Z,15.00
2018-03-29T22:04:58.008Z,19.10
2018-03-29T22:07:25.604Z,29.20
2018-03-29T22:09:53.314Z,13.60
2018-03-29T22:12:20.887Z,21.33
2018-03-29T22:14:48.646Z,21.23
2018-03-29T22:17:16.139Z,16.90
2018-03-29T22:19:43.757Z,15.30
2018-03-29T22:22:11.628Z,15.60
2018-03-29T22:24:40.110Z,17.17
2018-03-29T22:27:07.767Z,17.13
2018-03-29T22:29:36.779Z,14.70
2018-03-29T22:32:04.282Z,18.17
2018-03-29T22:34:31.991Z,16.80
2018-03-29T22:37:00.996Z,25.53
2018-03-29T22:39:28.764Z,16.50
2018-03-29T22:41:56.496Z,17.70
2018-03-29T22:44:24.227Z,20.30
2018-03-29T22:46:51.734Z,19.73
2018-03-29T22:49:19.403Z,18.07
2018-03-29T22:51:46.943Z,19.83
2018-03-29T22:54:14.435Z,25.97
2018-03-29T22:56:41.947Z,20.23
2018-03-29T22:59:09.451Z,22.27
2018-03-29T23:01:37.987Z,20.57
2018-03-29T23:04:05.515Z,20.37
2018-03-29T23:06:33.176Z,18.90
2018-03-29T23:09:01.184Z,20.60
2018-03-29T23:11:28.732Z,19.67
2018-03-29T23:13:56.448Z,22.00
2018-03-29T23:16:23.963Z,25.53
2018-03-29T23:18:51.469Z,22.43
2018-03-29T23:21:18.975Z,23.40
2018-03-29T23:23:47.200Z,26.37
2018-03-29T23:26:14.712Z,27.37
2018-03-29T23:28:43.716Z,24.87
2018-03-29T23:31:11.454Z,25.47
2018-03-29T23:33:38.969Z,26.90
2018-03-29T23:36:06.659Z,27.37
2018-03-29T23:38:34.173Z,31.90
2018-03-29T23:41:01.899Z,27.30
2018-03-29T23:43:29.658Z,27.57
2018-03-29T23:45:57.423Z,25.90
2018-03-29T23:48:24.985Z,29.03
2018-03-29T23:50:52.495Z,28.23
2018-03-29T23:53:20.003Z,28.83
2018-03-29T23:55:47.540Z,28.83
2018-03-29T23:58:17.168Z,27.57
